Time;durP1;ratioP1;P1;durP2;ratioP2;P2;SDS_P1;SDS_P2;PMS_P1;PMS_P2;Temp;Humidity;BMP_temperature;BMP_pressure;BME280_temperature;BME280_humidity;BME280_pressure;Samples;Min_cycle;Max_cycle;Signal;HPM_P1;HPM_P2
2023/06/10 00:00:06;;;;;;;3.67;3.40;;;;;;;20.37;68.92;96097.75;5041857;28;20200;-57
2023/06/10 00:02:34;;;;;;;4.20;3.90;;;;;;;20.42;70.05;96096.06;5047323;28;20367;-57
2023/06/10 00:05:01;;;;;;;4.45;4.15;;;;;;;20.39;70.60;96093.81;5047371;28;20298;-57
2023/06/10 00:07:28;;;;;;;4.55;3.65;;;;;;;20.36;71.14;96091.56;5049415;28;20207;-57
2023/06/10 00:09:55;;;;;;;3.97;3.67;;;;;;;20.34;71.83;96101.69;5043565;28;20242;-57
2023/06/10 00:12:22;;;;;;;3.85;3.60;;;;;;;20.29;71.88;96096.97;5042689;28;20207;-57
2023/06/10 00:14:50;;;;;;;4.20;3.90;;;;;;;20.26;73.12;96099.25;5032862;28;20192;-58
2023/06/10 00:17:16;;;;;;;3.95;3.75;;;;;;;20.21;72.59;96094.50;5032567;28;20211;-58
2023/06/10 00:19:46;;;;;;;3.85;3.65;;;;;;;20.16;71.72;96097.00;5032609;28;20196;-57
2023/06/10 00:22:14;;;;;;;4.10;3.80;;;;;;;20.11;72.67;96093.34;5032948;28;20204;-56
2023/06/10 00:24:41;;;;;;;4.30;3.90;;;;;;;20.07;73.64;96090.25;5054255;28;20217;-58
2023/06/10 00:27:08;;;;;;;4.30;4.00;;;;;;;19.97;74.46;96091.75;5050655;28;20217;-58
2023/06/10 00:29:35;;;;;;;3.90;3.60;;;;;;;19.91;74.87;96087.25;5040366;28;20224;-57
2023/06/10 00:32:01;;;;;;;4.20;3.90;;;;;;;19.86;74.44;96091.41;5032568;28;20215;-58
2023/06/10 00:34:27;;;;;;;4.00;3.70;;;;;;;19.82;74.65;96090.19;5032770;28;20210;-57
2023/06/10 00:36:55;;;;;;;4.18;3.88;;;;;;;19.74;75.78;96093.09;5032435;28;20211;-57
2023/06/10 00:39:22;;;;;;;3.90;3.70;;;;;;;19.69;75.23;96084.06;5032405;28;20261;-57
2023/06/10 00:41:49;;;;;;;4.25;3.83;;;;;;;19.69;74.81;96084.06;5031827;28;20204;-57
2023/06/10 00:44:16;;;;;;;4.40;4.00;;;;;;;19.62;74.97;96083.25;5032142;28;20208;-57
2023/06/10 00:46:42;;;;;;;4.30;3.90;;;;;;;19.45;77.31;96080.22;5032146;28;20219;-58
2023/06/10 00:49:09;;;;;;;3.85;3.58;;;;;;;19.47;75.46;96083.53;5032456;28;20545;-57
2023/06/10 00:51:36;;;;;;;4.20;3.90;;;;;;;19.37;76.74;96092.00;5032547;28;20261;-57
2023/06/10 00:54:04;;;;;;;4.05;3.75;;;;;;;19.30;76.81;96093.03;5036247;28;20199;-57
2023/06/10 00:56:31;;;;;;;4.13;3.70;;;;;;;19.29;77.08;96096.75;5031751;28;20211;-57
2023/06/10 00:58:58;;;;;;;4.30;3.78;;;;;;;19.26;77.73;96102.53;5032062;28;20212;-57
2023/06/10 01:01:25;;;;;;;4.28;3.97;;;;;;;19.15;76.92;96090.59;5031274;28;20658;-58
2023/06/10 01:03:52;;;;;;;4.32;4.03;;;;;;;19.16;76.57;96094.09;5032781;28;20254;-57
2023/06/10 01:06:26;;;;;;;4.03;3.72;;;;;;;19.12;76.70;96087.50;5035817;28;20311;-56
2023/06/10 01:08:57;;;;;;;4.28;3.92;;;;;;;19.03;77.70;96088.75;5033152;28;20561;-57
2023/06/10 01:11:30;;;;;;;4.30;3.90;;;;;;;18.94;78.70;96080.13;5033939;28;20208;-58
2023/06/10 01:13:59;;;;;;;4.22;3.92;;;;;;;18.92;79.29;96087.53;5038267;28;20235;-57
2023/06/10 01:16:26;;;;;;;4.07;3.85;;;;;;;18.89;79.30;96079.91;5040591;28;20211;-57
2023/06/10 01:18:54;;;;;;;4.15;3.85;;;;;;;18.87;79.37;96085.50;5040386;28;20227;-57
2023/06/10 01:21:24;;;;;;;3.90;3.60;;;;;;;18.81;78.86;96086.31;5040886;28;20199;-57
2023/06/10 01:23:50;;;;;;;4.03;3.63;;;;;;;18.76;80.02;96075.41;5042131;28;20200;-57
2023/06/10 01:26:17;;;;;;;4.57;4.28;;;;;;;18.70;80.41;96078.91;5040746;28;20214;-57
2023/06/10 01:28:49;;;;;;;4.20;3.90;;;;;;;18.62;80.44;96089.00;5041612;28;20594;-56
2023/06/10 01:31:21;;;;;;;4.43;4.00;;;;;;;18.52;81.49;96089.44;5041260;28;20534;-57
2023/06/10 01:33:48;;;;;;;4.20;3.90;;;;;;;18.50;81.26;96086.09;5042078;28;20227;-57
2023/06/10 01:36:17;;;;;;;4.25;3.85;;;;;;;18.46;81.43;96092.88;5041430;28;20268;-56
2023/06/10 01:38:46;;;;;;;4.32;3.92;;;;;;;18.43;81.00;96093.28;5042079;28;20243;-57
2023/06/10 01:41:13;;;;;;;4.43;4.13;;;;;;;18.37;81.13;96096.78;5041351;28;20654;-57
2023/06/10 01:43:40;;;;;;;4.18;3.88;;;;;;;18.32;80.43;96107.28;5039803;28;20203;-57
2023/06/10 01:46:06;;;;;;;4.88;4.40;;;;;;;18.23;79.95;96103.16;5040586;28;20215;-57
2023/06/10 01:48:33;;;;;;;3.97;3.67;;;;;;;18.13;79.69;96102.72;5040931;28;20654;-57
2023/06/10 01:50:59;;;;;;;4.70;4.38;;;;;;;18.08;81.57;96110.53;5041288;28;21386;-58
2023/06/10 01:53:26;;;;;;;4.65;4.35;;;;;;;18.03;82.12;96103.09;5040815;28;20215;-57
2023/06/10 01:55:54;;;;;;;4.65;4.35;;;;;;;17.97;81.65;96103.09;5039808;28;20220;-57
2023/06/10 01:58:20;;;;;;;4.10;3.80;;;;;;;17.95;82.66;96099.81;5041051;28;20208;-58
2023/06/10 02:00:47;;;;;;;4.22;3.90;;;;;;;17.89;82.63;96096.06;5040608;28;20207;-57
2023/06/10 02:03:13;;;;;;;4.72;4.32;;;;;;;17.85;82.25;96095.66;5041038;28;20212;-57
2023/06/10 02:05:40;;;;;;;4.57;4.18;;;;;;;17.77;83.25;96106.53;5040315;28;20207;-57
2023/06/10 02:08:06;;;;;;;4.60;4.20;;;;;;;17.77;84.17;96103.88;5041371;28;20230;-57
2023/06/10 02:10:33;;;;;;;4.68;4.38;;;;;;;17.70;84.12;96103.03;5041972;28;20227;-58
2023/06/10 02:13:03;;;;;;;4.40;4.00;;;;;;;17.76;81.92;96106.72;5040101;28;20235;-57
2023/06/10 02:15:29;;;;;;;5.15;4.70;;;;;;;17.64;84.41;96114.50;5040874;28;20283;-57
2023/06/10 02:17:56;;;;;;;4.90;4.47;;;;;;;17.58;85.03;96117.97;5039962;28;20659;-58
2023/06/10 02:20:23;;;;;;;4.85;4.10;;;;;;;17.62;84.78;96119.22;5040519;28;20210;-57
2023/06/10 02:22:49;;;;;;;5.00;4.60;;;;;;;17.56;85.38;96116.50;5041091;28;20207;-58
2023/06/10 02:25:16;;;;;;;4.38;4.07;;;;;;;17.58;84.27;96115.31;5040716;28;20207;-57
2023/06/10 02:27:42;;;;;;;4.60;4.30;;;;;;;17.48;84.71;96122.84;5040307;28;21366;-57
2023/06/10 02:30:11;;;;;;;4.90;4.50;;;;;;;17.47;84.24;96123.84;5040697;28;20239;-58
2023/06/10 02:32:38;;;;;;;4.57;4.28;;;;;;;17.49;84.38;96121.00;5044287;28;20265;-56
2023/06/10 02:35:05;;;;;;;5.05;4.68;;;;;;;17.47;83.78;96121.19;5049157;28;20203;-58
2023/06/10 02:37:31;;;;;;;5.63;5.15;;;;;;;17.42;83.65;96126.31;5059401;28;20204;-56
2023/06/10 02:39:59;;;;;;;4.32;4.00;;;;;;;17.39;82.62;96124.03;5056650;28;20206;-58
2023/06/10 02:42:25;;;;;;;4.55;4.15;;;;;;;17.39;85.01;96132.06;5056156;28;20211;-57
2023/06/10 02:44:52;;;;;;;4.57;4.18;;;;;;;17.39;84.61;96137.41;5044876;28;20222;-57
2023/06/10 02:47:19;;;;;;;5.43;4.70;;;;;;;17.32;83.54;96133.88;5044580;28;20210;-56
2023/06/10 02:49:46;;;;;;;5.10;4.65;;;;;;;17.28;83.43;96141.44;5044332;28;20230;-57
2023/06/10 02:52:12;;;;;;;4.47;4.18;;;;;;;17.28;84.72;96140.63;5043424;28;20207;-56
2023/06/10 02:54:39;;;;;;;5.28;4.85;;;;;;;17.26;87.00;96139.97;5043484;28;20556;-58
2023/06/10 02:57:07;;;;;;;4.50;4.20;;;;;;;17.27;86.15;96145.13;5043077;28;20522;-56
2023/06/10 02:59:33;;;;;;;5.75;4.43;;;;;;;17.26;85.05;96148.81;5044154;28;20203;-56
2023/06/10 03:02:01;;;;;;;5.25;4.82;;;;;;;17.29;84.82;96143.09;5043978;28;20207;-57
2023/06/10 03:04:30;;;;;;;4.95;4.55;;;;;;;17.38;84.41;96146.44;5043808;28;20711;-57
2023/06/10 03:06:57;;;;;;;5.00;4.60;;;;;;;17.32;85.25;96144.56;5044073;28;20203;-57
2023/06/10 03:09:23;;;;;;;4.72;4.38;;;;;;;17.32;83.86;96155.25;5043916;28;20203;-56
2023/06/10 03:11:50;;;;;;;4.80;4.50;;;;;;;17.28;84.78;96152.16;5043593;28;20282;-57
2023/06/10 03:14:16;;;;;;;5.07;4.68;;;;;;;17.29;83.98;96159.13;5044792;28;20286;-57
2023/06/10 03:16:44;;;;;;;4.28;3.88;;;;;;;17.27;83.79;96155.84;5045802;28;20199;-57
2023/06/10 03:19:10;;;;;;;5.00;4.70;;;;;;;17.15;84.54;96157.38;5045907;28;20195;-58
2023/06/10 03:21:38;;;;;;;4.60;4.30;;;;;;;17.15;86.57;96161.91;5044819;28;20208;-57
2023/06/10 03:24:05;;;;;;;4.68;4.28;;;;;;;17.13;87.32;96158.59;5045136;28;20195;-57
2023/06/10 03:26:31;;;;;;;5.25;4.68;;;;;;;17.14;86.61;96160.25;5043853;28;20214;-57
2023/06/10 03:28:58;;;;;;;5.30;4.90;;;;;;;17.09;87.60;96158.16;5043810;28;20203;-57
2023/06/10 03:31:25;;;;;;;5.38;4.25;;;;;;;17.08;87.83;96167.19;5042674;28;20231;-57
2023/06/10 03:33:52;;;;;;;5.18;4.78;;;;;;;17.13;86.70;96161.28;5043520;28;20211;-58
2023/06/10 03:36:18;;;;;;;6.00;4.72;;;;;;;17.11;87.27;96166.81;5043272;28;20208;-57
2023/06/10 03:38:46;;;;;;;6.78;4.80;;;;;;;17.05;88.13;96156.06;5043081;28;20570;-57
2023/06/10 03:41:12;;;;;;;5.20;4.80;;;;;;;17.10;87.81;96167.03;5043064;28;20204;-57
2023/06/10 03:43:40;;;;;;;5.45;4.95;;;;;;;17.02;87.04;96170.66;5042456;28;20690;-57
2023/06/10 03:46:06;;;;;;;4.85;4.47;;;;;;;16.99;89.12;96170.22;5041981;28;20235;-57
2023/06/10 03:48:33;;;;;;;5.63;5.13;;;;;;;16.97;89.25;96177.63;5043570;28;20211;-56
2023/06/10 03:50:59;;;;;;;5.68;5.10;;;;;;;16.97;88.92;96172.28;5041407;28;20227;-58
2023/06/10 03:53:26;;;;;;;5.53;5.13;;;;;;;16.95;89.92;96172.44;5042156;28;20643;-57
2023/06/10 03:55:53;;;;;;;5.10;4.70;;;;;;;16.96;89.12;96179.47;5042456;28;20208;-57
2023/06/10 03:58:20;;;;;;;5.25;4.85;;;;;;;16.93;89.37;96175.31;5042406;28;20239;-57
2023/06/10 04:00:46;;;;;;;5.93;5.32;;;;;;;16.89;90.26;96184.75;5042933;28;20204;-58
2023/06/10 04:03:14;;;;;;;4.95;4.65;;;;;;;16.91;89.24;96185.38;5042704;28;20211;-58
2023/06/10 04:05:42;;;;;;;4.93;4.63;;;;;;;16.89;90.70;96184.75;5043775;28;20207;-58
2023/06/10 04:08:08;;;;;;;5.32;4.90;;;;;;;16.97;88.75;96186.44;5042923;28;20644;-58
2023/06/10 04:10:35;;;;;;;5.30;4.90;;;;;;;16.96;88.08;96187.47;5042965;28;20219;-57
2023/06/10 04:13:03;;;;;;;5.15;4.75;;;;;;;16.94;88.36;96189.50;5041197;28;20240;-57
2023/06/10 04:15:32;;;;;;;5.45;4.95;;;;;;;16.95;90.82;96190.31;5045582;28;20207;-57
2023/06/10 04:17:59;;;;;;;5.65;4.85;;;;;;;16.95;93.50;96195.66;5044037;28;20222;-58
2023/06/10 04:20:25;;;;;;;5.35;4.90;;;;;;;16.98;93.98;96192.59;5043686;28;20856;-57
2023/06/10 04:22:51;;;;;;;5.82;5.43;;;;;;;17.01;94.88;96192.22;5043870;28;20215;-57
2023/06/10 04:25:18;;;;;;;5.60;5.20;;;;;;;17.10;93.91;96197.22;5042479;28;20228;-56
2023/06/10 04:27:44;;;;;;;5.75;5.25;;;;;;;17.14;94.03;96203.00;5041815;28;20643;-57
2023/06/10 04:30:14;;;;;;;5.55;5.05;;;;;;;17.16;94.70;96200.97;5042144;28;20203;-57
2023/06/10 04:32:40;;;;;;;6.00;5.10;;;;;;;17.32;93.34;96203.34;5041998;28;20223;-57
2023/06/10 04:35:08;;;;;;;5.38;4.93;;;;;;;17.34;94.05;96204.81;5043145;28;20331;-57
2023/06/10 04:37:34;;;;;;;6.50;5.95;;;;;;;17.43;94.06;96214.31;5044890;28;20203;-58
2023/06/10 04:40:01;;;;;;;5.47;5.07;;;;;;;17.55;93.04;96209.25;5043677;28;20215;-56
2023/06/10 04:42:27;;;;;;;5.78;5.28;;;;;;;17.72;90.68;96223.16;5042189;28;20206;-58
2023/06/10 04:44:54;;;;;;;5.28;4.80;;;;;;;17.92;90.35;96209.88;5042306;28;20203;-57
2023/06/10 04:47:22;;;;;;;6.07;5.53;;;;;;;18.02;91.80;96219.19;5042555;28;20219;-57
2023/06/10 04:49:48;;;;;;;5.45;5.05;;;;;;;18.18;90.63;96218.00;5042495;28;20568;-59
2023/06/10 04:52:14;;;;;;;5.60;5.05;;;;;;;18.20;92.83;96216.81;5046767;28;20223;-57
2023/06/10 04:54:41;;;;;;;6.00;5.50;;;;;;;18.32;90.61;96214.34;5043467;28;20216;-57
2023/06/10 04:57:08;;;;;;;5.78;5.38;;;;;;;18.41;89.52;96223.88;5045006;28;20222;-58
2023/06/10 04:59:37;;;;;;;5.90;5.40;;;;;;;18.45;90.04;96214.41;5042596;28;20208;-56
2023/06/10 05:02:04;;;;;;;5.28;4.88;;;;;;;18.59;87.86;96215.28;5042243;28;20203;-56
2023/06/10 05:04:32;;;;;;;5.63;5.10;;;;;;;18.66;86.00;96221.47;5041490;28;20763;-57
2023/06/10 05:06:58;;;;;;;5.50;5.10;;;;;;;18.75;86.40;96221.06;5041188;28;20603;-57
2023/06/10 05:09:25;;;;;;;6.03;5.50;;;;;;;18.85;82.74;96226.84;5041524;28;20236;-57
2023/06/10 05:11:53;;;;;;;5.68;5.20;;;;;;;18.99;82.04;96225.00;5041273;28;20631;-57
2023/06/10 05:14:20;;;;;;;5.68;5.18;;;;;;;19.12;81.17;96224.22;5040997;28;20246;-58
2023/06/10 05:16:47;;;;;;;5.82;5.25;;;;;;;19.27;80.96;96224.84;5041087;28;20208;-58
2023/06/10 05:19:13;;;;;;;5.93;5.43;;;;;;;19.42;81.40;96233.50;5042127;28;20200;-57
2023/06/10 05:21:41;;;;;;;5.80;5.30;;;;;;;19.55;79.98;96230.81;5042113;28;20572;-58
2023/06/10 05:24:08;;;;;;;5.50;5.10;;;;;;;19.73;80.55;96238.22;5039132;28;21340;-56
2023/06/10 05:26:37;;;;;;;5.55;5.15;;;;;;;19.87;78.38;96234.47;5042193;28;20282;-57
2023/06/10 05:29:03;;;;;;;5.28;4.90;;;;;;;20.07;77.36;96234.38;5041883;28;20203;-57
2023/06/10 05:31:30;;;;;;;5.45;5.00;;;;;;;20.21;74.81;96230.63;5040466;28;20321;-57
2023/06/10 05:33:56;;;;;;;6.25;5.75;;;;;;;20.30;71.75;96226.66;5041290;28;20218;-57
2023/06/10 05:36:25;;;;;;;5.80;5.40;;;;;;;20.53;71.85;96229.66;5041394;28;20208;-56
2023/06/10 05:38:53;;;;;;;6.22;5.65;;;;;;;20.62;69.51;96235.59;5040916;28;20291;-57
2023/06/10 05:41:21;;;;;;;5.65;5.25;;;;;;;20.83;68.47;96238.78;5024729;28;20212;-57
2023/06/10 05:43:48;;;;;;;6.38;5.70;;;;;;;20.99;66.38;96236.63;5043519;28;20211;-57
2023/06/10 05:46:16;;;;;;;5.70;5.30;;;;;;;21.16;67.26;96237.75;5041274;28;20215;-57
2023/06/10 05:48:43;;;;;;;6.00;5.20;;;;;;;21.38;66.10;96239.03;5041985;28;20581;-58
2023/06/10 05:51:10;;;;;;;5.90;5.32;;;;;;;21.56;65.46;96233.69;5043033;28;20316;-57
2023/06/10 05:53:38;;;;;;;6.15;5.32;;;;;;;21.58;65.05;96241.53;5044101;28;20241;-59
2023/06/10 05:56:06;;;;;;;6.18;5.68;;;;;;;21.73;63.60;96240.16;5041603;28;20199;-58
2023/06/10 05:58:32;;;;;;;6.07;5.47;;;;;;;21.81;61.17;96242.56;5042101;28;20215;-58
2023/06/10 06:00:58;;;;;;;5.70;5.22;;;;;;;22.04;61.78;96243.78;5041457;28;20206;-59
2023/06/10 06:03:25;;;;;;;5.25;4.85;;;;;;;22.21;62.53;96250.25;5043115;28;20211;-58
2023/06/10 06:05:51;;;;;;;6.57;4.88;;;;;;;22.35;61.70;96245.50;5042094;28;20218;-58
2023/06/10 06:08:18;;;;;;;5.97;5.43;;;;;;;22.58;61.58;96249.13;5045507;28;20330;-58
2023/06/10 06:10:47;;;;;;;5.85;5.35;;;;;;;22.69;60.02;96250.25;5044228;28;20227;-57
2023/06/10 06:13:15;;;;;;;6.18;5.68;;;;;;;22.70;60.63;96244.66;5041007;28;20255;-57
2023/06/10 06:15:41;;;;;;;6.47;5.95;;;;;;;22.90;59.73;96240.84;5034471;28;20214;-58
2023/06/10 06:18:08;;;;;;;6.03;5.53;;;;;;;23.05;59.20;96241.25;5035467;28;20262;-57
2023/06/10 06:20:36;;;;;;;6.25;5.63;;;;;;;23.24;57.85;96240.09;5035237;28;20235;-57
2023/06/10 06:23:02;;;;;;;6.28;5.68;;;;;;;23.24;58.12;96242.81;5034489;28;20521;-57
2023/06/10 06:25:30;;;;;;;5.57;5.18;;;;;;;23.45;58.48;96241.47;5034264;28;20281;-58
2023/06/10 06:27:56;;;;;;;6.35;5.80;;;;;;;23.64;57.70;96243.81;5035385;28;20210;-58
2023/06/10 06:30:24;;;;;;;5.90;5.47;;;;;;;23.67;56.99;96237.94;5034807;28;20208;-58
2023/06/10 06:32:51;;;;;;;6.05;5.30;;;;;;;23.81;55.95;96245.84;5034432;28;20660;-58
2023/06/10 06:35:18;;;;;;;5.90;5.40;;;;;;;24.00;55.58;96242.75;5034889;28;20199;-58
2023/06/10 06:37:44;;;;;;;6.30;5.80;;;;;;;23.93;55.23;96235.84;5035049;28;20206;-57
2023/06/10 06:40:12;;;;;;;5.68;5.28;;;;;;;24.12;55.87;96229.25;5034275;28;20208;-58
2023/06/10 06:42:39;;;;;;;6.40;5.90;;;;;;;24.31;55.06;96227.22;5034168;28;20208;-57
2023/06/10 06:45:07;;;;;;;6.20;5.50;;;;;;;24.43;55.22;96220.72;5034282;28;20196;-59
2023/06/10 06:47:35;;;;;;;5.80;5.30;;;;;;;24.60;55.27;96227.00;5034271;28;20640;-57
2023/06/10 06:50:03;;;;;;;6.25;5.68;;;;;;;24.76;53.51;96230.84;5034125;28;20207;-58
2023/06/10 06:52:29;;;;;;;5.97;5.47;;;;;;;24.93;52.46;96230.91;5034099;28;20227;-58
2023/06/10 06:54:56;;;;;;;6.00;5.50;;;;;;;24.99;53.19;96224.50;5034010;28;20211;-58
2023/06/10 06:57:23;;;;;;;6.07;5.53;;;;;;;25.13;51.00;96223.13;5034397;28;20211;-58
2023/06/10 06:59:49;;;;;;;6.13;5.53;;;;;;;25.29;52.24;96221.53;5034370;28;20232;-57
2023/06/10 07:02:16;;;;;;;8.38;6.15;;;;;;;25.19;50.91;96227.56;5033520;28;20200;-59
2023/06/10 07:04:44;;;;;;;5.75;5.28;;;;;;;25.33;50.93;96228.88;5034115;28;20207;-58
2023/06/10 07:07:11;;;;;;;6.38;5.78;;;;;;;25.53;51.49;96236.56;5056923;28;20214;-58
2023/06/10 07:09:38;;;;;;;6.38;5.78;;;;;;;25.54;52.26;96230.88;5055512;28;20195;-59
2023/06/10 07:12:06;;;;;;;6.03;5.50;;;;;;;25.72;50.97;96238.75;5050798;28;20227;-58
2023/06/10 07:14:32;;;;;;;6.15;5.45;;;;;;;25.94;51.65;96243.41;5034794;28;20311;-59
2023/06/10 07:16:59;;;;;;;6.05;5.53;;;;;;;26.03;50.80;96237.34;5033888;28;20215;-57
2023/06/10 07:19:28;;;;;;;6.30;5.80;;;;;;;26.03;49.18;96237.34;5033627;28;20724;-58
2023/06/10 07:21:55;;;;;;;6.50;6.00;;;;;;;25.99;49.43;96240.78;5033560;28;20196;-58
2023/06/10 07:24:22;;;;;;;6.50;6.03;;;;;;;25.79;50.36;96232.38;5033133;28;20282;-57
2023/06/10 07:26:50;;;;;;;5.93;5.43;;;;;;;25.99;51.68;96236.19;5033409;28;20215;-57
2023/06/10 07:29:16;;;;;;;5.82;5.40;;;;;;;26.29;51.48;96238.50;5033564;28;20262;-58
2023/06/10 07:31:43;;;;;;;6.13;5.63;;;;;;;26.33;50.93;96236.94;5032785;28;20254;-58
2023/06/10 07:34:10;;;;;;;6.70;5.43;;;;;;;26.40;49.04;96239.47;5033439;28;20204;-57
2023/06/10 07:36:37;;;;;;;6.22;5.63;;;;;;;26.50;50.82;96237.69;5033585;28;20207;-58
2023/06/10 07:39:05;;;;;;;5.60;5.07;;;;;;;26.77;49.70;96240.47;5032216;28;20541;-59
2023/06/10 07:41:32;;;;;;;7.28;5.85;;;;;;;26.70;48.11;96239.84;5032702;28;20254;-58
2023/06/10 07:43:58;;;;;;;5.90;5.30;;;;;;;26.70;49.06;96243.38;5033158;28;20227;-57
2023/06/10 07:46:26;;;;;;;6.50;5.93;;;;;;;26.69;49.94;96238.19;5033044;28;20214;-58
2023/06/10 07:48:54;;;;;;;6.10;5.50;;;;;;;26.86;48.20;96240.84;5033097;28;20209;-58
2023/06/10 07:51:21;;;;;;;6.70;5.97;;;;;;;26.73;49.65;96232.00;5032618;28;20655;-58
2023/06/10 07:53:47;;;;;;;6.07;5.68;;;;;;;26.99;47.77;96235.03;5033453;28;20199;-59
2023/06/10 07:56:15;;;;;;;6.65;6.15;;;;;;;27.02;47.75;96234.53;5033192;28;20216;-58
2023/06/10 07:58:42;;;;;;;5.93;5.43;;;;;;;27.38;49.20;96239.22;5032934;28;20776;-57
2023/06/10 08:01:08;;;;;;;6.25;5.80;;;;;;;27.22;45.78;96240.13;5033151;28;20219;-58
2023/06/10 08:03:36;;;;;;;6.00;5.60;;;;;;;27.31;47.41;96238.59;5032112;28;20224;-59
2023/06/10 08:06:03;;;;;;;5.90;5.50;;;;;;;27.43;46.90;96235.69;5032472;28;20199;-58
2023/06/10 08:08:29;;;;;;;5.97;5.57;;;;;;;27.37;48.26;96243.00;5033058;28;20211;-59
2023/06/10 08:10:56;;;;;;;6.30;5.70;;;;;;;27.24;49.09;96240.72;5032817;28;20214;-58
2023/06/10 08:13:25;;;;;;;5.97;5.57;;;;;;;27.35;47.53;96244.34;5032629;28;20251;-58
2023/06/10 08:15:53;;;;;;;6.18;5.60;;;;;;;27.36;47.23;96240.53;5032473;28;20204;-58
2023/06/10 08:18:22;;;;;;;5.82;5.32;;;;;;;27.68;46.57;96239.47;5032719;28;20265;-58
2023/06/10 08:20:48;;;;;;;8.52;6.05;;;;;;;27.29;47.49;96239.91;5032593;28;20208;-57
2023/06/10 08:23:15;;;;;;;6.68;6.07;;;;;;;27.41;47.30;96238.69;5032599;28;20207;-58
2023/06/10 08:25:41;;;;;;;5.93;5.53;;;;;;;27.80;48.07;96231.16;5031667;28;20211;-59
2023/06/10 08:28:08;;;;;;;6.40;5.90;;;;;;;27.81;45.32;96232.75;5031855;28;20230;-59
2023/06/10 08:30:36;;;;;;;9.13;6.03;;;;;;;27.79;48.82;96220.53;5032305;28;20203;-59
2023/06/10 08:33:05;;;;;;;6.38;5.78;;;;;;;27.94;44.98;96239.66;5031894;28;20231;-59
2023/06/10 08:35:31;;;;;;;5.70;5.20;;;;;;;27.95;47.35;96225.00;5031509;28;20214;-65
2023/06/10 08:37:58;;;;;;;6.38;5.78;;;;;;;27.80;45.41;96235.75;5032186;28;20204;-58
2023/06/10 08:40:24;;;;;;;5.97;5.57;;;;;;;28.06;46.94;96226.66;5032460;28;20211;-59
2023/06/10 08:42:57;;;;;;;6.05;5.55;;;;;;;28.10;44.20;96225.91;5032358;28;20200;-58
2023/06/10 08:45:24;;;;;;;7.10;6.45;;;;;;;27.73;43.83;96229.72;5032115;28;20206;-59
2023/06/10 08:47:54;;;;;;;5.70;5.30;;;;;;;27.90;45.55;96222.22;5032455;28;20212;-59
2023/06/10 08:50:22;;;;;;;7.18;6.07;;;;;;;27.60;45.05;96223.66;5033011;28;20200;-58
2023/06/10 08:52:51;;;;;;;5.97;5.45;;;;;;;27.89;46.22;96226.03;5037891;28;20247;-57
2023/06/10 08:55:25;;;;;;;6.20;5.70;;;;;;;28.11;43.15;96221.31;5034912;28;20222;-58
2023/06/10 08:57:52;;;;;;;6.82;5.88;;;;;;;27.98;45.54;96217.13;5031911;28;20207;-58
2023/06/10 09:00:19;;;;;;;6.45;5.45;;;;;;;28.04;44.47;96226.94;5031648;28;20286;-59
2023/06/10 09:02:46;;;;;;;5.80;5.30;;;;;;;28.17;43.39;96220.25;5031100;28;20716;-59
2023/06/10 09:05:14;;;;;;;5.75;5.25;;;;;;;28.05;44.02;96211.47;5031041;28;20218;-59
2023/06/10 09:07:41;;;;;;;6.38;5.88;;;;;;;28.04;43.62;96216.06;5032403;28;20204;-58
2023/06/10 09:10:08;;;;;;;6.53;5.93;;;;;;;28.11;43.57;96221.31;5031870;28;20200;-59
2023/06/10 09:12:35;;;;;;;5.93;5.53;;;;;;;28.22;44.84;96217.56;5031877;28;20827;-60
2023/06/10 09:15:02;;;;;;;5.97;5.47;;;;;;;28.38;42.51;96224.69;5032032;28;20287;-59
2023/06/10 09:17:28;;;;;;;5.47;5.10;;;;;;;28.24;40.61;96215.38;5032516;28;20207;-59
2023/06/10 09:19:56;;;;;;;6.10;5.60;;;;;;;27.90;42.04;96214.06;5032110;28;20215;-60
2023/06/10 09:22:26;;;;;;;6.57;6.05;;;;;;;27.87;42.66;96212.72;5033257;28;20211;-60
2023/06/10 09:24:53;;;;;;;6.45;5.40;;;;;;;28.20;43.26;96216.19;5031833;28;20836;-57
2023/06/10 09:27:19;;;;;;;6.63;6.00;;;;;;;28.47;44.11;96208.69;5031369;28;20204;-59
2023/06/10 09:29:52;;;;;;;6.60;6.00;;;;;;;28.43;41.34;96213.84;5031472;28;20212;-59
2023/06/10 09:32:19;;;;;;;6.35;5.80;;;;;;;28.33;41.76;96211.09;5031239;28;20216;-59
2023/06/10 09:34:47;;;;;;;8.57;5.30;;;;;;;28.83;42.28;96206.94;5031544;28;20203;-59
2023/06/10 09:37:13;;;;;;;6.35;5.85;;;;;;;28.90;43.62;96216.50;5032124;28;20204;-59
2023/06/10 09:39:41;;;;;;;6.25;5.75;;;;;;;28.88;40.72;96207.75;5030961;28;20243;-60
2023/06/10 09:42:16;;;;;;;5.90;5.50;;;;;;;28.91;42.36;96220.03;5030789;28;20204;-59
2023/06/10 09:44:43;;;;;;;6.13;5.63;;;;;;;28.79;42.04;96212.09;5030712;28;20195;-60
2023/06/10 09:47:09;;;;;;;7.03;6.53;;;;;;;28.86;43.30;96211.84;5030531;28;20611;-59
2023/06/10 09:49:38;;;;;;;7.30;6.57;;;;;;;28.38;43.49;96210.28;5030776;28;20644;-58
2023/06/10 09:52:06;;;;;;;6.65;6.05;;;;;;;28.22;44.04;96208.59;5030736;28;20237;-58
2023/06/10 09:54:33;;;;;;;6.15;5.75;;;;;;;28.50;44.35;96206.25;5030445;28;20632;-59
2023/06/10 09:57:08;;;;;;;6.10;5.60;;;;;;;28.36;44.91;96205.13;5029776;28;20266;-59
2023/06/10 09:59:35;;;;;;;6.40;5.80;;;;;;;28.72;45.82;96202.56;5030939;28;20512;-60
2023/06/10 10:02:02;;;;;;;5.72;5.32;;;;;;;28.83;42.92;96198.78;5029816;28;20224;-58
2023/06/10 10:04:29;;;;;;;5.35;4.95;;;;;;;29.01;41.98;96201.00;5030515;28;20580;-59
2023/06/10 10:06:55;;;;;;;5.88;5.47;;;;;;;28.98;41.86;96204.25;5030980;28;20206;-60
2023/06/10 10:09:22;;;;;;;5.60;5.10;;;;;;;29.12;40.62;96208.88;5031211;28;20204;-59
2023/06/10 10:11:49;;;;;;;6.30;5.22;;;;;;;28.74;39.23;96213.97;5030855;28;20266;-59
2023/06/10 10:14:17;;;;;;;5.20;4.85;;;;;;;29.08;39.04;96204.28;5039359;28;20707;-59
2023/06/10 10:16:45;;;;;;;5.90;5.40;;;;;;;28.45;39.73;96200.00;5039743;28;20212;-60
2023/06/10 10:19:14;;;;;;;5.20;4.90;;;;;;;29.10;41.41;96202.91;5041121;28;20200;-60
2023/06/10 10:21:44;;;;;;;5.53;5.03;;;;;;;29.36;41.77;96189.34;5041180;28;20242;-63
2023/06/10 10:24:17;;;;;;;6.22;5.63;;;;;;;29.05;42.11;96197.44;5041230;28;20196;-60
2023/06/10 10:26:44;;;;;;;6.13;5.57;;;;;;;28.62;40.50;96193.25;5042221;28;20211;-59
2023/06/10 10:29:12;;;;;;;6.38;5.55;;;;;;;28.91;42.29;96195.53;5040391;28;20650;-59
2023/06/10 10:31:40;;;;;;;5.82;5.43;;;;;;;29.17;43.06;96191.75;5040432;28;20207;-59
2023/06/10 10:34:08;;;;;;;5.97;5.40;;;;;;;29.23;41.02;96193.38;5040771;28;20239;-60
2023/06/10 10:36:35;;;;;;;6.13;5.53;;;;;;;29.17;40.23;96189.00;5040691;28;20215;-59
2023/06/10 10:39:03;;;;;;;5.57;5.05;;;;;;;29.11;41.14;96188.22;5040105;28;20208;-58
2023/06/10 10:41:31;;;;;;;5.60;5.20;;;;;;;29.19;40.27;96195.03;5041611;28;20218;-59
2023/06/10 10:43:58;;;;;;;5.93;5.53;;;;;;;29.26;40.78;96190.16;5040747;28;20203;-60
2023/06/10 10:46:24;;;;;;;5.97;5.57;;;;;;;29.33;41.42;96192.59;5040463;28;20595;-61
2023/06/10 10:48:57;;;;;;;6.25;5.75;;;;;;;29.54;41.13;96192.34;5040962;28;20512;-59
2023/06/10 10:51:24;;;;;;;7.25;6.55;;;;;;;29.17;39.95;96183.56;5042084;28;20196;-59
2023/06/10 10:54:13;;;;;;;6.32;5.82;;;;;;;29.54;40.14;96178.72;5044841;28;20251;-58
2023/06/10 10:56:40;;;;;;;5.65;5.25;;;;;;;29.71;41.41;96185.75;5043561;28;20200;-60
2023/06/10 10:59:07;;;;;;;6.55;6.05;;;;;;;29.46;39.47;96184.72;5045196;28;20208;-59
2023/06/10 11:01:41;;;;;;;7.60;5.80;;;;;;;29.14;39.09;96187.66;5043310;28;20298;-59
2023/06/10 11:04:10;;;;;;;6.35;5.90;;;;;;;29.19;38.96;96177.88;5042613;28;20203;-60
2023/06/10 11:06:36;;;;;;;6.30;5.70;;;;;;;29.42;40.23;96175.44;5044357;28;20223;-59
2023/06/10 11:09:26;;;;;;;6.50;5.90;;;;;;;29.48;40.97;96171.59;5043736;28;20211;-59
2023/06/10 11:11:52;;;;;;;5.97;5.57;;;;;;;29.65;41.01;96172.13;5042585;28;20528;-60
2023/06/10 11:14:28;;;;;;;5.82;5.43;;;;;;;29.93;40.89;96176.22;5035472;28;20263;-59
2023/06/10 11:16:57;;;;;;;6.13;5.72;;;;;;;29.99;39.85;96174.28;5033564;28;20192;-59
2023/06/10 11:19:35;;;;;;;6.22;5.72;;;;;;;29.91;40.97;96174.84;5033756;28;20199;-61
2023/06/10 11:22:02;;;;;;;7.30;6.25;;;;;;;29.68;41.00;96162.63;5033520;28;20204;-59
2023/06/10 11:24:30;;;;;;;5.95;5.55;;;;;;;29.22;39.46;96164.53;5033206;28;20200;-59
2023/06/10 11:27:15;;;;;;;5.60;5.10;;;;;;;28.74;40.04;96162.25;5033546;28;20214;-58
2023/06/10 11:29:56;;;;;;;7.57;5.25;;;;;;;28.92;39.77;96167.19;5032164;28;20200;-56
2023/06/10 11:32:22;;;;;;;6.82;5.20;;;;;;;28.90;39.83;96164.78;5032999;28;20625;-56
2023/06/10 11:34:54;;;;;;;5.70;5.20;;;;;;;29.07;41.60;96169.94;5033182;28;20199;-57